createdAt,value
2019-03-10T00:01:22.071Z,4.23
2019-03-10T00:03:50.949Z,3.37
2019-03-10T00:06:19.887Z,3.27
2019-03-10T00:08:48.852Z,3.73
2019-03-10T00:11:17.741Z,4.67
2019-03-10T00:13:49.112Z,3.13
2019-03-10T00:16:18.325Z,4.30
2019-03-10T00:18:50.470Z,3.07
2019-03-10T00:21:19.641Z,4.10
2019-03-10T00:23:49.325Z,3.37
2019-03-10T00:26:20.940Z,3.53
2019-03-10T00:28:49.746Z,4.03
2019-03-10T00:31:19.753Z,3.77
2019-03-10T00:33:49.020Z,3.53
2019-03-10T00:36:18.733Z,2.77
2019-03-10T00:39:17.481Z,3.40
2019-03-10T00:42:39.546Z,3.37
2019-03-10T00:45:48.445Z,2.83
2019-03-10T00:52:25.643Z,3.17
2019-03-10T00:54:55.070Z,2.60
2019-03-10T00:57:26.964Z,3.67
2019-03-10T00:59:55.845Z,3.10
2019-03-10T01:02:25.074Z,2.97
2019-03-10T01:04:54.066Z,3.33
2019-03-10T01:07:23.298Z,2.67
2019-03-10T01:09:52.988Z,3.63
2019-03-10T01:12:22.539Z,2.90
2019-03-10T01:14:55.095Z,2.90
2019-03-10T01:17:24.494Z,2.70
2019-03-10T01:19:53.514Z,3.10
2019-03-10T01:22:22.905Z,3.33
2019-03-10T01:24:51.829Z,3.47
2019-03-10T01:27:20.729Z,3.50
2019-03-10T01:29:49.641Z,3.47
2019-03-10T01:33:00.460Z,3.03
2019-03-10T01:35:34.666Z,4.23
2019-03-10T01:38:03.595Z,3.23
2019-03-10T01:40:35.179Z,3.20
2019-03-10T01:43:04.171Z,3.00
2019-03-10T01:45:33.061Z,2.63
2019-03-10T01:48:02.045Z,3.90
2019-03-10T01:50:33.837Z,3.70
2019-03-10T01:53:03.102Z,3.30
2019-03-10T01:55:32.338Z,3.50
2019-03-10T01:58:01.785Z,2.90
2019-03-10T02:00:31.428Z,3.80
2019-03-10T02:03:00.671Z,2.87
2019-03-10T02:05:29.834Z,3.60
2019-03-10T02:07:58.711Z,3.40
2019-03-10T02:10:27.679Z,2.93
2019-03-10T02:12:56.789Z,3.13
2019-03-10T02:15:26.035Z,2.90
2019-03-10T02:17:55.025Z,2.77
2019-03-10T02:20:24.171Z,2.97
2019-03-10T02:22:53.056Z,3.27
2019-03-10T02:25:22.249Z,3.60
2019-03-10T02:27:51.292Z,3.37
2019-03-10T02:30:20.354Z,2.77
2019-03-10T02:32:49.877Z,3.13
2019-03-10T02:35:18.704Z,2.80
2019-03-10T02:37:48.860Z,3.80
2019-03-10T02:40:18.231Z,2.80
2019-03-10T02:42:47.331Z,3.23
2019-03-10T02:45:16.257Z,3.20
2019-03-10T02:47:45.265Z,2.93
2019-03-10T02:50:14.491Z,3.50
2019-03-10T02:52:49.775Z,3.30
2019-03-10T02:55:20.672Z,3.47
2019-03-10T02:57:51.807Z,2.70
2019-03-10T03:00:21.133Z,3.00
2019-03-10T03:02:50.043Z,3.87
2019-03-10T03:05:22.003Z,3.60
2019-03-10T03:07:54.196Z,2.50
2019-03-10T03:10:23.066Z,1.83
2019-03-10T03:12:52.306Z,2.23
2019-03-10T03:15:21.182Z,2.30
2019-03-10T03:17:50.642Z,2.20
2019-03-10T03:20:19.569Z,2.50
2019-03-10T03:22:52.897Z,2.13
2019-03-10T03:25:21.788Z,2.27
2019-03-10T03:27:50.675Z,2.27
2019-03-10T03:30:20.930Z,2.00
2019-03-10T03:32:50.403Z,2.60
2019-03-10T03:36:16.143Z,2.63
2019-03-10T03:38:51.883Z,2.87
2019-03-10T03:41:21.219Z,2.30
2019-03-10T03:43:50.092Z,2.50
2019-03-10T03:46:19.073Z,2.37
2019-03-10T03:48:48.393Z,2.60
2019-03-10T03:51:17.570Z,2.80
2019-03-10T03:53:46.561Z,2.87
2019-03-10T03:56:15.980Z,3.17
2019-03-10T03:58:45.242Z,2.57
2019-03-10T04:01:25.865Z,3.13
2019-03-10T04:03:59.083Z,2.87
2019-03-10T04:06:29.126Z,3.63
2019-03-10T04:08:58.529Z,3.00
2019-03-10T04:11:27.414Z,3.83
2019-03-10T04:13:57.009Z,2.80
2019-03-10T04:16:25.958Z,3.10
2019-03-10T04:21:33.479Z,2.93
2019-03-10T04:24:02.276Z,2.77
2019-03-10T04:26:31.182Z,3.20
2019-03-10T04:29:06.613Z,2.90
2019-03-10T04:31:35.492Z,2.90
2019-03-10T04:34:04.775Z,2.97
2019-03-10T04:36:34.043Z,2.90
2019-03-10T04:39:06.814Z,3.20
2019-03-10T04:41:36.198Z,4.00
2019-03-10T04:44:06.683Z,4.60
2019-03-10T04:46:35.562Z,4.70
2019-03-10T04:49:04.569Z,4.30
2019-03-10T04:51:34.235Z,4.70
2019-03-10T04:54:04.308Z,4.37
2019-03-10T04:56:43.929Z,5.17
2019-03-10T04:59:12.739Z,5.10
2019-03-10T05:01:41.710Z,5.93
2019-03-10T05:04:10.655Z,5.60
2019-03-10T05:06:39.508Z,5.10
2019-03-10T05:09:11.845Z,5.23
2019-03-10T05:11:42.222Z,5.50
2019-03-10T05:14:11.932Z,5.30
2019-03-10T05:16:42.307Z,5.87
2019-03-10T05:19:12.278Z,5.47
2019-03-10T05:21:41.404Z,5.37
2019-03-10T05:24:15.347Z,4.97
2019-03-10T05:26:44.229Z,4.70
2019-03-10T05:29:14.183Z,4.27
2019-03-10T05:31:43.110Z,4.27
2019-03-10T05:34:11.967Z,4.60
2019-03-10T05:36:40.794Z,3.60
2019-03-10T05:39:10.342Z,3.93
2019-03-10T05:41:39.565Z,4.10
2019-03-10T05:44:08.423Z,3.87
2019-03-10T05:46:38.088Z,3.97
2019-03-10T05:49:06.994Z,4.23
2019-03-10T05:51:36.177Z,2.97
2019-03-10T05:54:05.185Z,3.53
2019-03-10T05:56:34.141Z,2.73
2019-03-10T05:59:03.069Z,2.73
2019-03-10T06:01:34.329Z,3.07
2019-03-10T06:04:05.161Z,2.67
2019-03-10T06:06:34.076Z,3.27
2019-03-10T06:09:04.641Z,3.70
2019-03-10T06:11:33.664Z,3.87
2019-03-10T06:14:02.976Z,3.50
2019-03-10T06:16:32.234Z,4.23
2019-03-10T06:19:01.118Z,4.03
2019-03-10T06:21:33.579Z,3.60
2019-03-10T06:26:40.564Z,3.73
2019-03-10T06:29:10.658Z,3.80
2019-03-10T06:31:40.098Z,3.77
2019-03-10T06:34:12.148Z,4.20
2019-03-10T06:36:41.137Z,3.73
2019-03-10T06:39:10.586Z,3.73
2019-03-10T06:41:39.961Z,3.87
2019-03-10T06:44:08.951Z,3.57
2019-03-10T06:46:38.344Z,3.90
2019-03-10T06:49:08.221Z,3.83
2019-03-10T06:51:37.657Z,3.90
2019-03-10T06:54:16.831Z,3.40
2019-03-10T06:56:46.197Z,3.80
2019-03-10T06:59:15.687Z,4.10
2019-03-10T07:01:46.197Z,4.57
2019-03-10T07:04:15.120Z,4.33
2019-03-10T07:06:44.342Z,3.53
2019-03-10T07:09:13.199Z,4.63
2019-03-10T07:11:42.374Z,4.37
2019-03-10T07:16:47.178Z,3.90
2019-03-10T07:19:16.175Z,4.50
2019-03-10T07:21:45.084Z,4.60
2019-03-10T07:24:14.003Z,4.47
2019-03-10T07:26:45.244Z,4.33
2019-03-10T07:29:20.351Z,4.60
2019-03-10T07:32:09.011Z,4.90
2019-03-10T07:34:57.819Z,4.90
2019-03-10T07:37:37.797Z,5.20
2019-03-10T07:40:25.054Z,6.00
2019-03-10T07:43:09.702Z,4.70
2019-03-10T07:45:57.703Z,4.40
2019-03-10T07:48:51.741Z,5.37
2019-03-10T07:51:39.716Z,5.37
2019-03-10T07:54:33.038Z,5.23
2019-03-10T07:57:26.875Z,5.03
2019-03-10T08:00:13.732Z,6.00
2019-03-10T08:03:04.913Z,5.57
2019-03-10T08:05:54.842Z,5.47
2019-03-10T08:08:36.640Z,5.33
2019-03-10T08:11:16.857Z,5.70
2019-03-10T08:14:14.006Z,5.40
2019-03-10T08:17:10.869Z,6.47
2019-03-10T08:19:51.180Z,5.77
2019-03-10T08:22:45.276Z,6.60
2019-03-10T08:25:23.279Z,6.43
2019-03-10T08:28:14.265Z,7.10
2019-03-10T08:31:03.122Z,6.83
2019-03-10T08:33:49.739Z,6.30
2019-03-10T08:36:33.809Z,5.87
2019-03-10T08:39:19.842Z,6.67
2019-03-10T08:42:20.731Z,5.23
2019-03-10T08:45:18.195Z,5.17
2019-03-10T08:48:24.627Z,4.90
2019-03-10T08:51:09.234Z,4.60
2019-03-10T08:53:58.638Z,4.53
2019-03-10T08:56:38.264Z,3.83
2019-03-10T08:59:38.480Z,4.10
2019-03-10T09:02:17.644Z,3.90
2019-03-10T09:05:02.869Z,4.83
2019-03-10T09:07:41.652Z,3.90
2019-03-10T09:10:35.857Z,3.90
2019-03-10T09:13:17.300Z,3.10
2019-03-10T09:16:05.726Z,3.17
2019-03-10T09:18:54.127Z,3.40
2019-03-10T09:21:49.655Z,3.00
2019-03-10T09:24:36.862Z,2.70
2019-03-10T09:27:43.065Z,2.23
2019-03-10T09:30:29.747Z,2.60
2019-03-10T09:33:31.554Z,2.67
2019-03-10T09:36:28.754Z,2.37
2019-03-10T09:39:19.018Z,3.33
2019-03-10T09:41:58.691Z,4.73
2019-03-10T09:44:53.150Z,3.57
2019-03-10T09:47:53.806Z,2.87
2019-03-10T09:51:03.105Z,2.90
2019-03-10T09:53:41.060Z,2.83
2019-03-10T09:56:27.783Z,3.30
2019-03-10T09:59:06.089Z,2.47
2019-03-10T10:02:03.648Z,2.37
2019-03-10T10:05:00.700Z,2.10
2019-03-10T10:07:54.547Z,2.00
2019-03-10T10:10:48.351Z,2.20
2019-03-10T10:13:39.383Z,2.30
2019-03-10T10:16:33.459Z,2.73
2019-03-10T10:19:19.996Z,2.00
2019-03-10T10:22:06.836Z,2.00
2019-03-10T10:24:45.445Z,2.30
2019-03-10T10:27:42.530Z,2.20
2019-03-10T10:30:43.114Z,2.07
2019-03-10T10:33:46.129Z,2.13
2019-03-10T10:36:37.224Z,2.70
2019-03-10T10:39:26.160Z,2.70
2019-03-10T10:42:06.501Z,2.67
2019-03-10T10:44:53.587Z,2.87
2019-03-10T10:47:40.457Z,2.73
2019-03-10T10:50:32.283Z,2.33
2019-03-10T10:53:17.831Z,2.80
2019-03-10T10:56:12.548Z,2.60
2019-03-10T10:58:59.088Z,3.10
2019-03-10T11:01:52.797Z,2.33
2019-03-10T11:04:42.678Z,3.77
2019-03-10T11:07:44.608Z,2.47
2019-03-10T11:10:44.541Z,4.50
2019-03-10T11:13:31.101Z,4.83
2019-03-10T11:16:11.752Z,3.43
2019-03-10T11:19:01.945Z,3.67
2019-03-10T11:21:40.050Z,3.90
2019-03-10T11:24:40.135Z,4.40
2019-03-10T11:27:31.045Z,5.70
2019-03-10T11:30:19.391Z,6.97
2019-03-10T11:33:13.358Z,6.60
2019-03-10T11:36:04.703Z,8.67
2019-03-10T11:38:58.666Z,10.37
2019-03-10T11:41:34.030Z,10.40
2019-03-10T11:44:25.780Z,10.93
2019-03-10T11:47:11.232Z,10.60
2019-03-10T11:49:51.103Z,4.90
2019-03-10T11:52:47.678Z,7.13
2019-03-10T11:55:30.502Z,5.37
2019-03-10T11:58:17.606Z,8.20
2019-03-10T12:01:11.168Z,6.77
2019-03-10T12:03:47.895Z,5.93
2019-03-10T12:06:38.768Z,6.33
2019-03-10T12:09:15.688Z,7.27
2019-03-10T12:11:46.526Z,7.13
2019-03-10T12:14:15.443Z,7.73
2019-03-10T12:16:44.670Z,6.90
2019-03-10T12:19:13.812Z,7.20
2019-03-10T12:21:46.130Z,6.50
2019-03-10T12:24:15.453Z,6.60
2019-03-10T12:29:21.435Z,4.20
2019-03-10T12:31:50.462Z,3.87
2019-03-10T12:34:19.374Z,4.17
2019-03-10T12:36:51.047Z,3.33
2019-03-10T12:39:20.455Z,3.90
2019-03-10T12:41:58.390Z,3.93
2019-03-10T12:44:22.366Z,2.50
2019-03-10T12:46:52.515Z,3.57
2019-03-10T12:49:21.843Z,3.93
2019-03-10T12:51:51.251Z,3.10
2019-03-10T12:54:20.180Z,3.40
2019-03-10T12:56:49.203Z,4.53
2019-03-10T12:59:18.410Z,4.00
2019-03-10T13:01:48.168Z,4.40
2019-03-10T13:04:19.131Z,4.30
2019-03-10T13:06:48.477Z,3.83
2019-03-10T13:09:18.862Z,5.43
2019-03-10T13:11:47.857Z,3.57
2019-03-10T13:14:16.774Z,1.90
2019-03-10T13:16:46.282Z,0.97
2019-03-10T13:19:15.273Z,0.77
2019-03-10T13:21:44.370Z,0.97
2019-03-10T13:24:13.787Z,0.90
2019-03-10T13:26:42.796Z,0.97
2019-03-10T13:29:16.709Z,0.70
2019-03-10T13:31:45.743Z,0.80
2019-03-10T13:34:15.056Z,0.90
2019-03-10T13:36:44.552Z,0.80
2019-03-10T13:39:15.307Z,0.90
2019-03-10T13:41:44.580Z,0.80
2019-03-10T13:44:14.488Z,0.90
2019-03-10T13:46:44.420Z,0.60
2019-03-10T13:49:13.370Z,0.63
2019-03-10T13:51:45.289Z,0.90
2019-03-10T13:54:15.079Z,0.70
2019-03-10T13:56:44.139Z,0.70
2019-03-10T13:59:13.174Z,0.90
2019-03-10T14:01:42.237Z,1.10
2019-03-10T14:04:12.039Z,0.90
2019-03-10T14:09:19.587Z,0.87
2019-03-10T14:11:48.886Z,1.53
2019-03-10T14:14:17.885Z,1.60
2019-03-10T14:16:47.435Z,2.27
2019-03-10T14:19:17.692Z,1.50
2019-03-10T14:21:46.646Z,1.17
2019-03-10T14:24:16.071Z,0.80
2019-03-10T14:26:48.588Z,0.90
2019-03-10T14:29:17.862Z,0.70
2019-03-10T14:31:47.173Z,1.10
2019-03-10T14:34:16.363Z,0.60
2019-03-10T14:36:45.394Z,0.50
2019-03-10T14:39:14.849Z,0.70
2019-03-10T14:41:43.978Z,0.50
2019-03-10T14:44:12.937Z,0.60
2019-03-10T14:46:42.131Z,0.70
2019-03-10T14:49:15.009Z,0.80
2019-03-10T14:51:41.942Z,0.57
2019-03-10T14:54:11.172Z,0.67
2019-03-10T14:56:51.837Z,0.60
2019-03-10T14:59:24.236Z,0.50
2019-03-10T15:01:57.182Z,0.60
2019-03-10T15:04:29.651Z,0.57
2019-03-10T15:06:58.708Z,0.80
2019-03-10T15:09:31.133Z,0.83
2019-03-10T15:12:00.423Z,0.70
2019-03-10T15:14:29.711Z,0.80
2019-03-10T15:17:01.383Z,0.90
2019-03-10T15:19:37.568Z,0.50
2019-03-10T15:22:06.665Z,0.70
2019-03-10T15:24:37.387Z,0.87
2019-03-10T15:27:08.446Z,0.77
2019-03-10T15:29:40.350Z,0.93
2019-03-10T15:32:13.334Z,0.50
2019-03-10T15:34:42.480Z,0.50
2019-03-10T15:37:13.175Z,0.50
2019-03-10T15:39:45.120Z,0.77
2019-03-10T15:42:14.399Z,0.80
2019-03-10T15:44:43.402Z,0.80
2019-03-10T15:47:12.807Z,0.60
2019-03-10T15:49:45.116Z,0.80
2019-03-10T15:52:14.266Z,0.60
2019-03-10T15:54:43.692Z,0.40
2019-03-10T15:57:13.153Z,0.63
2019-03-10T15:59:45.904Z,1.40
2019-03-10T16:02:14.951Z,1.10
2019-03-10T16:04:45.139Z,1.00
2019-03-10T16:07:15.043Z,1.07
2019-03-10T16:09:44.039Z,1.40
2019-03-10T16:12:13.115Z,0.70
2019-03-10T16:14:42.544Z,0.87
2019-03-10T16:17:11.840Z,1.00
2019-03-10T16:19:41.650Z,1.13
2019-03-10T16:22:10.686Z,1.00
2019-03-10T16:24:39.614Z,0.90
2019-03-10T16:27:08.883Z,0.80
2019-03-10T16:29:41.084Z,1.00
2019-03-10T16:32:10.042Z,0.80
2019-03-10T16:34:39.789Z,0.60
2019-03-10T16:37:09.443Z,0.70
2019-03-10T16:39:41.061Z,0.70
2019-03-10T16:42:10.173Z,0.60
2019-03-10T16:44:40.264Z,0.50
2019-03-10T16:47:12.717Z,0.80
2019-03-10T16:49:41.901Z,0.50
2019-03-10T16:52:12.230Z,0.77
2019-03-10T16:54:41.818Z,0.90
2019-03-10T16:57:10.848Z,0.80
2019-03-10T16:59:40.295Z,0.70
2019-03-10T17:02:09.392Z,1.00
2019-03-10T17:04:41.534Z,0.80
2019-03-10T17:07:12.826Z,0.90
2019-03-10T17:09:54.567Z,1.00
2019-03-10T17:12:24.343Z,1.10
2019-03-10T17:14:53.381Z,1.60
2019-03-10T17:17:22.671Z,1.87
2019-03-10T17:19:52.485Z,1.13
2019-03-10T17:22:22.349Z,1.13
2019-03-10T17:24:51.462Z,0.80
2019-03-10T17:27:20.384Z,1.47
2019-03-10T17:29:49.373Z,1.50
2019-03-10T17:32:18.555Z,1.30
2019-03-10T17:34:47.546Z,1.10
2019-03-10T17:37:20.404Z,1.63
2019-03-10T17:39:49.836Z,1.30
2019-03-10T17:42:20.234Z,1.90
2019-03-10T17:44:49.652Z,2.13
2019-03-10T17:47:18.911Z,1.70
2019-03-10T17:49:50.606Z,2.10
2019-03-10T17:52:19.604Z,2.13
2019-03-10T17:55:00.760Z,2.00
2019-03-10T17:57:29.655Z,2.17
2019-03-10T18:00:02.060Z,2.10
2019-03-10T18:02:31.326Z,2.00
2019-03-10T18:05:00.374Z,2.97
2019-03-10T18:07:32.390Z,2.30
2019-03-10T18:10:02.490Z,2.13
2019-03-10T18:12:31.945Z,2.43
2019-03-10T18:15:08.593Z,2.60
2019-03-10T18:17:32.212Z,2.07
2019-03-10T18:20:01.144Z,2.63
2019-03-10T18:22:30.161Z,2.93
2019-03-10T18:25:05.336Z,2.13
2019-03-10T18:27:34.280Z,1.60
2019-03-10T18:30:03.305Z,1.73
2019-03-10T18:32:32.232Z,1.10
2019-03-10T18:35:01.379Z,0.70
2019-03-10T18:37:33.007Z,0.50
2019-03-10T18:40:02.733Z,0.90
2019-03-10T18:42:31.769Z,1.33
2019-03-10T18:45:01.793Z,0.80
2019-03-10T18:47:31.071Z,1.37
2019-03-10T18:50:01.147Z,1.10
2019-03-10T18:52:30.187Z,1.27
2019-03-10T18:54:59.251Z,1.40
2019-03-10T18:57:28.503Z,1.90
2019-03-10T18:59:57.793Z,2.10
2019-03-10T19:02:27.060Z,1.80
2019-03-10T19:04:56.562Z,2.30
2019-03-10T19:07:25.444Z,2.83
2019-03-10T19:09:57.996Z,2.47
2019-03-10T19:12:26.985Z,2.43
2019-03-10T19:14:56.622Z,2.77
2019-03-10T19:17:26.328Z,2.77
2019-03-10T19:19:55.998Z,2.30
2019-03-10T19:22:25.914Z,2.27
2019-03-10T19:24:55.634Z,3.10
2019-03-10T19:27:30.133Z,2.17
2019-03-10T19:29:55.670Z,2.40
2019-03-10T19:32:24.694Z,2.50
2019-03-10T19:34:53.898Z,2.00
2019-03-10T19:37:25.347Z,2.40
2019-03-10T19:39:55.331Z,2.00
2019-03-10T19:42:26.902Z,1.73
2019-03-10T19:44:56.517Z,2.23
2019-03-10T19:47:25.960Z,1.97
2019-03-10T19:49:56.670Z,2.47
2019-03-10T19:52:27.892Z,1.50
2019-03-10T19:54:57.473Z,2.33
2019-03-10T19:57:26.981Z,2.07
2019-03-10T19:59:56.497Z,1.90
2019-03-10T20:02:26.766Z,1.80
2019-03-10T20:04:55.787Z,1.77
2019-03-10T20:07:24.825Z,2.30
2019-03-10T20:09:54.265Z,1.83
2019-03-10T20:12:23.285Z,2.43
2019-03-10T20:14:52.415Z,2.53
2019-03-10T20:17:21.510Z,1.67
2019-03-10T20:19:51.052Z,1.60
2019-03-10T20:22:20.319Z,1.93
2019-03-10T20:24:49.365Z,1.80
2019-03-10T20:27:18.505Z,2.53
2019-03-10T20:29:48.060Z,1.90
2019-03-10T20:32:18.028Z,1.50
2019-03-10T20:34:50.147Z,2.37
2019-03-10T20:37:19.430Z,1.60
2019-03-10T20:39:49.260Z,1.63
2019-03-10T20:42:18.217Z,2.30
2019-03-10T20:44:48.161Z,1.40
2019-03-10T20:47:18.054Z,2.10
2019-03-10T20:49:47.242Z,1.93
2019-03-10T20:52:19.544Z,1.60
2019-03-10T20:54:49.366Z,1.50
2019-03-10T20:57:19.136Z,2.10
2019-03-10T20:59:48.120Z,1.57
2019-03-10T21:02:17.174Z,2.23
2019-03-10T21:04:46.277Z,3.07
2019-03-10T21:07:16.953Z,2.40
2019-03-10T21:09:46.243Z,2.47
2019-03-10T21:12:19.067Z,1.87
2019-03-10T21:14:48.178Z,1.67
2019-03-10T21:17:17.393Z,2.23
2019-03-10T21:19:48.754Z,1.60
2019-03-10T21:22:20.682Z,1.67
2019-03-10T21:24:49.027Z,1.57
2019-03-10T21:27:18.144Z,2.07
2019-03-10T21:29:47.621Z,1.67
2019-03-10T21:32:16.945Z,1.70
2019-03-10T21:34:46.189Z,1.23
2019-03-10T21:37:15.298Z,2.10
2019-03-10T21:39:45.952Z,2.33
2019-03-10T21:42:15.471Z,2.27
2019-03-10T21:44:44.402Z,1.90
2019-03-10T21:47:13.369Z,2.40
2019-03-10T21:49:45.972Z,2.60
2019-03-10T21:52:15.979Z,2.40
2019-03-10T21:54:46.927Z,2.50
2019-03-10T21:57:18.112Z,2.10
2019-03-10T21:59:47.230Z,2.43
2019-03-10T22:02:17.287Z,1.97
2019-03-10T22:04:46.506Z,1.63
2019-03-10T22:07:18.519Z,1.97
2019-03-10T22:09:47.463Z,2.20
2019-03-10T22:12:17.092Z,1.93
2019-03-10T22:14:46.243Z,2.37
2019-03-10T22:17:15.447Z,2.33
2019-03-10T22:19:44.460Z,2.10
2019-03-10T22:22:13.422Z,2.00
2019-03-10T22:24:42.814Z,2.07
2019-03-10T22:27:15.966Z,1.87
2019-03-10T22:29:46.135Z,1.90
2019-03-10T22:34:49.615Z,1.67
2019-03-10T22:37:18.640Z,1.40
2019-03-10T22:39:51.003Z,1.37
2019-03-10T22:42:19.953Z,1.63
2019-03-10T22:44:49.214Z,2.20
2019-03-10T22:47:18.786Z,1.70
2019-03-10T22:49:47.713Z,2.17
2019-03-10T22:52:16.864Z,1.13
2019-03-10T22:54:45.828Z,1.67
2019-03-10T22:57:15.049Z,2.23
2019-03-10T22:59:45.486Z,1.70
2019-03-10T23:02:15.088Z,2.00
2019-03-10T23:04:44.095Z,1.10
2019-03-10T23:07:16.334Z,1.67
2019-03-10T23:09:45.539Z,1.27
2019-03-10T23:12:14.802Z,1.60
2019-03-10T23:14:43.794Z,1.57
2019-03-10T23:17:12.861Z,1.20
2019-03-10T23:19:42.215Z,1.90
2019-03-10T23:22:11.296Z,1.33
2019-03-10T23:24:40.473Z,1.30
2019-03-10T23:27:09.290Z,2.00
2019-03-10T23:29:38.207Z,1.40
2019-03-10T23:32:07.167Z,2.17
2019-03-10T23:34:36.061Z,1.83
2019-03-10T23:37:05.085Z,1.80
2019-03-10T23:39:33.958Z,1.60
2019-03-10T23:42:03.459Z,1.87
2019-03-10T23:44:32.371Z,1.40
2019-03-10T23:47:02.954Z,1.60
2019-03-10T23:49:31.912Z,1.50
2019-03-10T23:52:03.856Z,1.50
2019-03-10T23:54:33.084Z,1.60
2019-03-10T23:57:02.075Z,1.60
2019-03-10T23:59:32.632Z,1.63
